createdAt,value
2018-07-14T00:04:22.404Z,9.93
2018-07-14T00:09:19.098Z,10.30
2018-07-14T00:14:16.112Z,10.43
2018-07-14T00:19:12.905Z,10.13
2018-07-14T00:24:10.040Z,10.23
2018-07-14T00:29:06.842Z,11.17
2018-07-14T00:34:03.773Z,12.17
2018-07-14T00:39:00.465Z,10.00
2018-07-14T00:43:57.589Z,10.20
2018-07-14T00:48:54.335Z,10.50
2018-07-14T00:53:51.280Z,11.33
2018-07-14T00:58:48.072Z,11.13
2018-07-14T01:03:44.929Z,11.37
2018-07-14T01:08:41.653Z,11.47
2018-07-14T01:13:38.857Z,11.90
2018-07-14T01:18:35.516Z,12.13
2018-07-14T01:23:32.485Z,12.90
2018-07-14T01:28:29.476Z,11.63
2018-07-14T01:33:26.519Z,14.27
2018-07-14T01:38:23.299Z,11.30
2018-07-14T01:43:20.208Z,11.33
2018-07-14T01:48:17.034Z,12.07
2018-07-14T01:53:14.034Z,11.80
2018-07-14T01:58:10.836Z,13.23
2018-07-14T02:03:08.056Z,11.27
2018-07-14T02:08:04.777Z,11.63
2018-07-14T02:13:01.807Z,12.57
2018-07-14T02:17:58.554Z,11.70
2018-07-14T02:22:55.501Z,13.37
2018-07-14T02:27:52.468Z,12.00
2018-07-14T02:32:50.041Z,14.47
2018-07-14T02:37:47.082Z,11.93
2018-07-14T02:42:44.180Z,11.87
2018-07-14T02:47:41.563Z,12.63
2018-07-14T02:52:38.302Z,11.70
2018-07-14T02:57:35.256Z,11.80
2018-07-14T03:02:32.080Z,12.53
2018-07-14T03:07:28.810Z,12.20
2018-07-14T03:12:25.832Z,11.87
2018-07-14T03:17:22.605Z,11.83
2018-07-14T03:22:19.684Z,11.77
2018-07-14T03:27:16.857Z,12.53
2018-07-14T03:32:14.105Z,12.10
2018-07-14T03:37:10.877Z,19.77
2018-07-14T03:42:07.929Z,11.27
2018-07-14T03:47:04.696Z,11.30
2018-07-14T03:52:02.050Z,11.23
2018-07-14T03:56:58.953Z,10.77
2018-07-14T04:01:55.795Z,11.17
2018-07-14T04:06:52.671Z,13.17
2018-07-14T04:11:49.808Z,11.10
2018-07-14T04:16:46.592Z,10.57
2018-07-14T04:21:43.516Z,11.70
2018-07-14T04:26:40.187Z,11.53
2018-07-14T04:31:37.544Z,10.53
2018-07-14T04:36:34.217Z,10.90
2018-07-14T04:41:31.362Z,12.00
2018-07-14T04:46:28.066Z,11.03
2018-07-14T04:51:25.291Z,10.43
2018-07-14T04:56:22.257Z,11.23
2018-07-14T05:01:19.110Z,10.37
2018-07-14T05:06:16.344Z,11.40
2018-07-14T05:11:13.076Z,12.37
2018-07-14T05:16:10.131Z,12.10
2018-07-14T05:21:06.880Z,13.63
2018-07-14T05:26:04.231Z,13.57
2018-07-14T05:31:00.980Z,14.20
2018-07-14T05:35:57.495Z,16.53
2018-07-14T05:40:54.213Z,19.70
2018-07-14T05:45:50.911Z,17.83
2018-07-14T05:50:47.940Z,12.80
2018-07-14T05:55:44.988Z,13.20
2018-07-14T06:00:41.959Z,13.00
2018-07-14T06:05:38.917Z,13.20
2018-07-14T06:10:35.669Z,13.53
2018-07-14T06:15:32.738Z,13.03
2018-07-14T06:20:29.801Z,13.00
2018-07-14T06:25:26.614Z,13.13
2018-07-14T06:30:23.507Z,14.20
2018-07-14T06:35:20.324Z,13.80
2018-07-14T06:40:17.556Z,12.13
2018-07-14T06:45:14.238Z,11.65
2018-07-14T06:50:11.269Z,9.83
2018-07-14T06:55:08.022Z,11.15
2018-07-14T07:00:05.311Z,10.35
2018-07-14T07:05:02.006Z,9.68
2018-07-14T07:09:59.221Z,9.63
2018-07-14T07:14:56.078Z,11.68
2018-07-14T07:19:52.797Z,15.48
2018-07-14T07:24:49.693Z,11.08
2018-07-14T07:29:46.452Z,10.38
2018-07-14T07:34:43.379Z,13.60
2018-07-14T07:39:40.196Z,9.85
2018-07-14T07:44:37.221Z,9.75
2018-07-14T07:49:34.206Z,8.85
2018-07-14T07:54:30.898Z,8.48
2018-07-14T07:59:27.822Z,10.53
2018-07-14T08:04:24.520Z,8.90
2018-07-14T08:09:21.700Z,9.03
2018-07-14T08:14:18.373Z,10.30
2018-07-14T08:19:15.359Z,8.40
2018-07-14T08:24:12.135Z,8.08
2018-07-14T08:29:09.295Z,8.55
2018-07-14T08:34:06.553Z,9.38
2018-07-14T08:39:04.165Z,7.58
2018-07-14T08:44:02.543Z,7.45
2018-07-14T08:48:59.454Z,7.47
2018-07-14T08:53:56.552Z,6.60
2018-07-14T08:58:53.277Z,7.05
2018-07-14T09:03:50.157Z,4.67
2018-07-14T09:08:46.866Z,9.15
2018-07-14T09:13:43.673Z,5.67
2018-07-14T09:18:40.505Z,10.88
2018-07-14T09:23:37.517Z,4.00
2018-07-14T09:28:34.334Z,6.15
2018-07-14T09:33:31.490Z,5.47
2018-07-14T09:38:28.339Z,6.67
2018-07-14T09:43:25.649Z,4.85
2018-07-14T09:48:22.371Z,6.00
2018-07-14T09:53:19.385Z,5.95
2018-07-14T09:58:16.319Z,4.37
2018-07-14T10:03:13.313Z,4.12
2018-07-14T10:08:10.029Z,4.37
2018-07-14T10:13:07.090Z,7.33
2018-07-14T10:18:07.484Z,5.05
2018-07-14T10:23:04.337Z,5.60
2018-07-14T10:28:01.048Z,7.53
2018-07-14T10:32:58.067Z,7.12
2018-07-14T10:37:54.291Z,7.62
2018-07-14T10:42:51.369Z,6.42
2018-07-14T10:47:48.328Z,5.12
2018-07-14T10:52:45.311Z,4.55
2018-07-14T10:57:42.119Z,7.45
2018-07-14T11:02:39.235Z,4.67
2018-07-14T11:07:36.024Z,4.37
2018-07-14T11:12:33.367Z,6.03
2018-07-14T11:17:30.118Z,4.10
2018-07-14T11:22:27.285Z,5.35
2018-07-14T11:27:24.123Z,3.33
2018-07-14T11:32:21.114Z,2.95
2018-07-14T11:37:18.700Z,4.12
2018-07-14T11:42:15.881Z,4.28
2018-07-14T11:47:12.649Z,3.67
2018-07-14T11:52:09.493Z,6.33
2018-07-14T12:02:22.471Z,7.80
2018-07-14T12:07:19.573Z,5.10
2018-07-14T12:12:16.289Z,4.40
2018-07-14T12:17:13.210Z,5.47
2018-07-14T12:22:10.392Z,7.40
2018-07-14T12:27:07.249Z,4.37
2018-07-14T12:32:04.315Z,5.22
2018-07-14T12:37:01.083Z,6.53
2018-07-14T12:41:58.120Z,4.20
2018-07-14T12:46:54.892Z,3.87
2018-07-14T12:51:51.829Z,3.55
2018-07-14T12:56:48.819Z,4.40
2018-07-14T13:01:45.575Z,4.35
2018-07-14T13:06:42.726Z,3.25
2018-07-14T13:11:40.410Z,3.30
2018-07-14T13:16:37.581Z,3.83
2018-07-14T13:21:34.324Z,3.98
2018-07-14T13:26:31.131Z,5.45
2018-07-14T13:31:28.102Z,3.87
2018-07-14T13:36:25.433Z,2.90
2018-07-14T13:41:22.720Z,3.27
2018-07-14T13:46:19.538Z,4.05
2018-07-14T13:51:16.570Z,3.70
2018-07-14T13:56:13.971Z,4.45
2018-07-14T14:01:10.769Z,3.95
2018-07-14T14:06:08.028Z,3.90
2018-07-14T14:11:04.849Z,6.45
2018-07-14T14:16:02.082Z,3.70
2018-07-14T14:20:58.889Z,5.67
2018-07-14T14:25:55.982Z,5.37
2018-07-14T14:30:52.736Z,4.97
2018-07-14T14:35:50.525Z,4.45
2018-07-14T14:40:47.275Z,4.17
2018-07-14T14:45:44.244Z,4.28
2018-07-14T14:50:41.214Z,8.40
2018-07-14T14:55:38.394Z,4.58
2018-07-14T15:00:35.191Z,6.12
2018-07-14T15:05:32.078Z,4.85
2018-07-14T15:10:29.149Z,6.33
2018-07-14T15:15:26.004Z,5.00
2018-07-14T15:20:23.239Z,5.53
2018-07-14T15:25:19.959Z,5.55
2018-07-14T15:30:16.907Z,6.85
2018-07-14T15:35:13.684Z,11.33
2018-07-14T15:40:11.558Z,8.33
2018-07-14T15:45:08.426Z,9.15
2018-07-14T15:50:05.571Z,5.58
2018-07-14T15:55:02.372Z,5.42
2018-07-14T15:59:59.393Z,6.62
2018-07-14T16:04:56.163Z,7.67
2018-07-14T16:09:53.097Z,7.40
2018-07-14T16:14:49.891Z,6.35
2018-07-14T16:19:47.056Z,5.62
2018-07-14T16:24:43.827Z,6.92
2018-07-14T16:29:40.858Z,4.97
2018-07-14T16:34:37.771Z,3.58
2018-07-14T16:39:35.138Z,4.58
2018-07-14T16:44:31.974Z,5.92
2018-07-14T16:49:30.184Z,4.72
2018-07-14T16:54:26.914Z,3.95
2018-07-14T16:59:23.857Z,7.20
2018-07-14T17:04:20.730Z,5.50
2018-07-14T17:09:17.693Z,4.42
2018-07-14T17:14:15.070Z,4.40
2018-07-14T17:19:11.767Z,3.65
2018-07-14T17:24:08.767Z,5.40
2018-07-14T17:29:05.598Z,6.60
2018-07-14T17:34:03.253Z,5.45
2018-07-14T17:39:00.291Z,4.80
2018-07-14T17:43:57.345Z,5.12
2018-07-14T17:48:54.054Z,4.00
2018-07-14T17:53:51.144Z,8.13
2018-07-14T17:58:47.970Z,9.15
2018-07-14T18:03:44.975Z,5.03
2018-07-14T18:08:42.208Z,6.10
2018-07-14T18:13:39.014Z,5.83
2018-07-14T18:18:36.081Z,4.37
2018-07-14T18:23:32.772Z,4.72
2018-07-14T18:28:30.013Z,4.60
2018-07-14T18:33:27.080Z,12.55
2018-07-14T18:38:24.320Z,34.98
2018-07-14T18:43:21.184Z,19.70
2018-07-14T18:48:18.310Z,15.10
2018-07-14T18:53:15.111Z,7.45
2018-07-14T18:58:12.148Z,8.43
2018-07-14T19:03:08.909Z,8.68
2018-07-14T19:08:06.008Z,10.50
2018-07-14T19:13:02.751Z,12.93
2018-07-14T19:17:59.807Z,8.83
2018-07-14T19:22:56.555Z,8.40
2018-07-14T19:27:53.541Z,5.67
2018-07-14T19:32:50.450Z,6.72
2018-07-14T19:37:47.404Z,8.48
2018-07-14T19:42:44.957Z,6.15
2018-07-14T19:47:41.754Z,6.37
2018-07-14T19:52:38.862Z,9.53
2018-07-14T19:57:35.601Z,7.33
2018-07-14T20:02:32.516Z,9.25
2018-07-14T20:07:29.540Z,7.05
2018-07-14T20:12:26.455Z,7.50
2018-07-14T20:17:23.582Z,6.35
2018-07-14T20:22:20.428Z,7.83
2018-07-14T20:27:17.313Z,6.42
2018-07-14T20:32:14.112Z,6.60
2018-07-14T20:37:10.914Z,6.55
2018-07-14T20:42:07.348Z,6.65
2018-07-14T20:47:04.350Z,8.80
2018-07-14T20:52:01.296Z,6.75
2018-07-14T20:56:58.062Z,9.65
2018-07-14T21:01:55.010Z,7.47
2018-07-14T21:06:51.812Z,7.42
2018-07-14T21:11:48.838Z,7.42
2018-07-14T21:16:45.626Z,7.80
2018-07-14T21:21:43.063Z,8.50
2018-07-14T21:26:39.813Z,9.00
2018-07-14T21:31:36.952Z,7.72
2018-07-14T21:36:34.283Z,8.35
2018-07-14T21:41:31.827Z,7.70
2018-07-14T21:46:28.656Z,8.85
2018-07-14T21:51:25.636Z,8.13
2018-07-14T21:56:22.619Z,12.68
2018-07-14T22:01:25.098Z,8.85
2018-07-14T22:06:21.967Z,9.33
2018-07-14T22:11:18.831Z,9.40
2018-07-14T22:16:15.824Z,11.33
2018-07-14T22:21:12.683Z,9.40
2018-07-14T22:26:09.730Z,9.98
2018-07-14T22:31:06.522Z,10.53
2018-07-14T22:36:03.446Z,12.10
2018-07-14T22:41:01.305Z,10.50
2018-07-14T22:45:58.477Z,12.80
2018-07-14T22:50:55.242Z,14.30
2018-07-14T22:55:52.172Z,9.53
2018-07-14T23:00:49.208Z,10.07
2018-07-14T23:05:45.915Z,10.90
2018-07-14T23:10:42.990Z,8.93
2018-07-14T23:15:39.726Z,10.63
2018-07-14T23:20:37.124Z,9.70
2018-07-14T23:25:33.854Z,9.60
2018-07-14T23:30:30.740Z,9.67
2018-07-14T23:35:27.513Z,9.63
2018-07-14T23:40:24.678Z,9.20
2018-07-14T23:45:21.780Z,13.83
2018-07-14T23:50:18.723Z,17.63
2018-07-14T23:55:15.442Z,18.37
